XRC1025 DTTA-DTTX
Flight info
| Callsign | XRC1025 |
|---|---|
| Flight time | N/A |
| Altitude | 15000 |
| Route | GIBLI2C GIBLI A411 ELJEM/N0362F140 DCT FS15 |
| Aircraft | B738/M-SDE2E3FGHIRWXY/LB1 |
Departure
| Time | 2026-05-09 09:06 |
|---|---|
| Airport | Tunis Carthage International Airport (DTTA) |
Arrival
| Time | N/A |
|---|---|
| Airport | Sfax Thyna International Airport (DTTX) |
| Time | Latitude | Longitude | Altitude | Speed | Heading |
|---|---|---|---|---|---|
| 2026-05-09 08:41 | 36.84068 | 10.21988 | 29 ft | 0 kts | 102° |
| 2026-05-09 08:55 | 36.84069 | 10.21980 | 29 ft | 2 kts | 102° |
| 2026-05-09 08:55 | 36.84073 | 10.21960 | 29 ft | 2 kts | 102° |
| 2026-05-09 08:56 | 36.84076 | 10.21940 | 29 ft | 2 kts | 99° |
| 2026-05-09 08:56 | 36.84077 | 10.21920 | 29 ft | 2 kts | 66° |
| 2026-05-09 08:56 | 36.84070 | 10.21908 | 29 ft | 1 kts | 14° |
| 2026-05-09 08:56 | 36.84065 | 10.21907 | 29 ft | 0 kts | 10° |
| 2026-05-09 08:58 | 36.84067 | 10.21907 | 29 ft | 3 kts | 9° |
| 2026-05-09 08:58 | 36.84154 | 10.21914 | 29 ft | 17 kts | 3° |
| 2026-05-09 08:58 | 36.84269 | 10.21939 | 29 ft | 16 kts | 11° |
| 2026-05-09 08:59 | 36.84377 | 10.21970 | 29 ft | 16 kts | 14° |
| 2026-05-09 08:59 | 36.84482 | 10.22004 | 29 ft | 15 kts | 15° |
| 2026-05-09 08:59 | 36.84528 | 10.22072 | 29 ft | 5 kts | 92° |
| 2026-05-09 08:59 | 36.84510 | 10.22115 | 29 ft | 6 kts | 128° |
| 2026-05-09 09:00 | 36.84497 | 10.22142 | 29 ft | 6 kts | 113° |
| 2026-05-09 09:00 | 36.84487 | 10.22204 | 29 ft | 6 kts | 88° |
| 2026-05-09 09:00 | 36.84502 | 10.22251 | 29 ft | 7 kts | 47° |
| 2026-05-09 09:00 | 36.84557 | 10.22279 | 29 ft | 10 kts | 16° |
| 2026-05-09 09:01 | 36.84639 | 10.22299 | 29 ft | 13 kts | 9° |
| 2026-05-09 09:01 | 36.84731 | 10.22321 | 29 ft | 13 kts | 14° |
| 2026-05-09 09:01 | 36.84819 | 10.22346 | 29 ft | 13 kts | 11° |
| 2026-05-09 09:01 | 36.84877 | 10.22360 | 30 ft | 13 kts | 12° |
| 2026-05-09 09:02 | 36.84989 | 10.22383 | 30 ft | 12 kts | 339° |
| 2026-05-09 09:02 | 36.85030 | 10.22295 | 28 ft | 12 kts | 290° |
| 2026-05-09 09:02 | 36.85060 | 10.22201 | 29 ft | 12 kts | 294° |
| 2026-05-09 09:02 | 36.85093 | 10.22109 | 30 ft | 11 kts | 294° |
| 2026-05-09 09:03 | 36.85124 | 10.22021 | 30 ft | 11 kts | 293° |
| 2026-05-09 09:03 | 36.85153 | 10.21935 | 29 ft | 11 kts | 293° |
| 2026-05-09 09:03 | 36.85182 | 10.21851 | 29 ft | 10 kts | 293° |
| 2026-05-09 09:03 | 36.85210 | 10.21769 | 29 ft | 10 kts | 293° |
| 2026-05-09 09:04 | 36.85259 | 10.21716 | 29 ft | 10 kts | 352° |
| 2026-05-09 09:04 | 36.85324 | 10.21738 | 29 ft | 10 kts | 23° |
| 2026-05-09 09:04 | 36.85384 | 10.21772 | 30 ft | 9 kts | 30° |
| 2026-05-09 09:04 | 36.85404 | 10.21818 | 31 ft | 4 kts | 90° |
| 2026-05-09 09:05 | 36.85397 | 10.21853 | 30 ft | 5 kts | 109° |
| 2026-05-09 09:05 | 36.85367 | 10.21943 | 30 ft | 38 kts | 114° |
| 2026-05-09 09:05 | 36.85063 | 10.22856 | 31 ft | 129 kts | 112° |
| 2026-05-09 09:05 | 36.84675 | 10.24042 | 374 ft | 154 kts | 112° |
| 2026-05-09 09:06 | 36.84263 | 10.25305 | 1159 ft | 159 kts | 112° |
| 2026-05-09 09:06 | 36.83874 | 10.26595 | 2003 ft | 159 kts | 111° |
| 2026-05-09 09:06 | 36.83446 | 10.27992 | 2377 ft | 189 kts | 115° |
| 2026-05-09 09:06 | 36.82835 | 10.29527 | 2702 ft | 207 kts | 131° |
| 2026-05-09 09:07 | 36.81671 | 10.30585 | 3164 ft | 211 kts | 160° |
| 2026-05-09 09:07 | 36.80214 | 10.30822 | 3779 ft | 213 kts | 186° |
| 2026-05-09 09:07 | 36.79240 | 10.30667 | 4201 ft | 214 kts | 189° |
| 2026-05-09 09:07 | 36.77242 | 10.30253 | 5158 ft | 217 kts | 191° |
| 2026-05-09 09:08 | 36.76259 | 10.30038 | 5690 ft | 217 kts | 191° |
| 2026-05-09 09:08 | 36.74252 | 10.29598 | 6695 ft | 221 kts | 192° |
| 2026-05-09 09:08 | 36.72728 | 10.29268 | 7397 ft | 224 kts | 190° |
| 2026-05-09 09:08 | 36.71692 | 10.29276 | 7826 ft | 232 kts | 172° |
| 2026-05-09 09:09 | 36.69481 | 10.30172 | 8191 ft | 268 kts | 162° |
| 2026-05-09 09:09 | 36.67690 | 10.31046 | 8664 ft | 282 kts | 162° |
| 2026-05-09 09:09 | 36.65844 | 10.31962 | 9370 ft | 288 kts | 162° |
| 2026-05-09 09:09 | 36.63970 | 10.32888 | 10113 ft | 292 kts | 162° |
| 2026-05-09 09:10 | 36.62032 | 10.33836 | 10482 ft | 311 kts | 163° |
| 2026-05-09 09:10 | 36.59970 | 10.34835 | 10628 ft | 333 kts | 162° |
| 2026-05-09 09:10 | 36.57742 | 10.35910 | 10822 ft | 354 kts | 162° |
| 2026-05-09 09:10 | 36.56171 | 10.36668 | 11071 ft | 362 kts | 162° |
| 2026-05-09 09:11 | 36.53026 | 10.38187 | 11898 ft | 368 kts | 163° |
| 2026-05-09 09:11 | 36.51408 | 10.38969 | 12366 ft | 370 kts | 163° |
| 2026-05-09 09:11 | 36.49026 | 10.40117 | 13027 ft | 374 kts | 163° |
| 2026-05-09 09:11 | 36.46555 | 10.41304 | 13687 ft | 379 kts | 163° |
| 2026-05-09 09:12 | 36.44108 | 10.42479 | 14300 ft | 383 kts | 163° |